createdAt,value
2023-03-20T00:02:23.570Z,99.90
2023-03-20T00:04:51.282Z,99.90
2023-03-20T00:07:18.595Z,99.90
2023-03-20T00:09:46.185Z,99.90
2023-03-20T00:12:22.312Z,99.90
2023-03-20T00:14:49.509Z,99.90
2023-03-20T00:17:21.055Z,99.90
2023-03-20T00:19:49.039Z,99.90
2023-03-20T00:22:16.571Z,99.90
2023-03-20T00:24:43.800Z,99.90
2023-03-20T00:27:17.866Z,99.90
2023-03-20T00:29:45.040Z,99.90
2023-03-20T00:32:13.760Z,99.90
2023-03-20T00:34:41.030Z,99.90
2023-03-20T00:37:11.743Z,99.90
2023-03-20T00:39:39.162Z,99.90
2023-03-20T00:42:07.810Z,99.90
2023-03-20T00:44:41.794Z,99.90
2023-03-20T00:47:21.852Z,99.90
2023-03-20T00:49:51.480Z,99.90
2023-03-20T00:52:20.320Z,99.90
2023-03-20T00:54:47.890Z,99.90
2023-03-20T00:57:32.250Z,99.90
2023-03-20T01:00:21.481Z,99.90
2023-03-20T01:02:48.675Z,99.90
2023-03-20T01:05:16.096Z,99.90
2023-03-20T01:07:43.264Z,99.90
2023-03-20T01:10:12.770Z,99.90
2023-03-20T01:12:43.401Z,99.90
2023-03-20T01:15:24.749Z,99.90
2023-03-20T01:17:52.976Z,99.90
2023-03-20T01:20:28.489Z,99.90
2023-03-20T01:22:55.643Z,99.90
2023-03-20T01:25:23.408Z,99.90
2023-03-20T01:27:54.258Z,99.90
2023-03-20T01:30:26.173Z,99.90
2023-03-20T01:32:54.424Z,99.90
2023-03-20T01:35:27.747Z,99.90
2023-03-20T01:37:56.344Z,99.90
2023-03-20T01:40:51.092Z,99.90
2023-03-20T01:43:22.211Z,99.90
2023-03-20T01:46:21.447Z,99.90
2023-03-20T01:48:52.108Z,99.90
2023-03-20T01:51:26.124Z,99.90
2023-03-20T01:54:40.863Z,99.90
2023-03-20T01:57:37.696Z,99.90
2023-03-20T02:00:12.070Z,99.90
2023-03-20T02:02:41.129Z,99.90
2023-03-20T02:05:13.221Z,99.90
2023-03-20T02:07:41.033Z,99.90
2023-03-20T02:10:15.806Z,99.90
2023-03-20T02:12:44.339Z,99.90
2023-03-20T02:15:14.235Z,99.90
2023-03-20T02:17:42.730Z,99.90
2023-03-20T02:20:33.913Z,99.90
2023-03-20T02:23:21.423Z,99.90
2023-03-20T02:26:11.118Z,99.90
2023-03-20T02:29:06.025Z,99.90
2023-03-20T02:32:13.902Z,99.90
2023-03-20T02:35:19.813Z,99.90
2023-03-20T02:38:10.068Z,99.90
2023-03-20T02:41:25.117Z,99.90
2023-03-20T02:44:22.465Z,99.90
2023-03-20T02:47:18.873Z,99.90
2023-03-20T02:50:14.197Z,99.90
2023-03-20T02:53:45.905Z,99.90
2023-03-20T02:56:17.488Z,99.90
2023-03-20T02:59:02.155Z,99.90
2023-03-20T03:01:41.539Z,99.90
2023-03-20T03:04:33.493Z,99.90
2023-03-20T03:07:05.695Z,99.90
2023-03-20T03:09:53.993Z,99.90
2023-03-20T03:12:28.587Z,99.90
2023-03-20T03:15:07.885Z,99.90
2023-03-20T03:17:37.996Z,99.90
2023-03-20T03:20:25.912Z,99.90
2023-03-20T03:22:53.007Z,99.90
2023-03-20T03:25:26.598Z,99.90
2023-03-20T03:28:23.386Z,99.90
2023-03-20T03:30:53.639Z,99.90
2023-03-20T03:33:32.447Z,99.90
2023-03-20T03:36:43.031Z,99.90
2023-03-20T03:39:36.663Z,99.90
2023-03-20T03:42:31.588Z,99.90
2023-03-20T03:45:38.046Z,99.90
2023-03-20T03:48:20.693Z,99.90
2023-03-20T03:50:54.615Z,99.90
2023-03-20T03:53:30.473Z,99.90
2023-03-20T03:56:04.451Z,99.90
2023-03-20T03:58:35.937Z,99.90
2023-03-20T04:01:05.306Z,99.90
2023-03-20T04:03:39.274Z,99.90
2023-03-20T04:06:10.101Z,99.90
2023-03-20T04:08:37.247Z,99.90
2023-03-20T04:11:04.525Z,99.90
2023-03-20T04:13:31.687Z,99.90
2023-03-20T04:15:58.824Z,99.90
2023-03-20T04:18:26.037Z,99.90
2023-03-20T04:20:53.614Z,99.90
2023-03-20T04:23:20.730Z,99.90
2023-03-20T04:25:47.846Z,99.90
2023-03-20T04:28:16.647Z,99.90
2023-03-20T04:30:48.216Z,99.90
2023-03-20T04:33:15.456Z,99.90
2023-03-20T04:35:42.581Z,99.90
2023-03-20T04:38:09.700Z,99.90
2023-03-20T04:40:36.994Z,99.90
2023-03-20T04:43:04.654Z,99.90
2023-03-20T04:45:31.858Z,99.90
2023-03-20T04:47:58.939Z,99.90
2023-03-20T04:50:26.096Z,99.90
2023-03-20T04:52:53.213Z,99.90
2023-03-20T04:55:22.492Z,99.90
2023-03-20T04:57:50.251Z,99.90
2023-03-20T05:00:18.480Z,99.90
2023-03-20T05:02:46.330Z,99.90
2023-03-20T05:05:13.511Z,99.90
2023-03-20T05:07:40.715Z,99.90
2023-03-20T05:10:08.544Z,99.90
2023-03-20T05:12:36.375Z,99.90
2023-03-20T05:15:03.686Z,99.90
2023-03-20T05:17:30.797Z,99.90
2023-03-20T05:19:58.005Z,99.90
2023-03-20T05:22:25.415Z,99.90
2023-03-20T05:24:52.515Z,99.90
2023-03-20T05:27:19.649Z,99.90
2023-03-20T05:29:46.812Z,99.90
2023-03-20T05:32:13.902Z,99.90
2023-03-20T05:34:41.058Z,99.90
2023-03-20T05:37:08.237Z,99.90
2023-03-20T05:39:35.547Z,99.90
2023-03-20T05:42:02.697Z,99.90
2023-03-20T05:44:29.823Z,99.90
2023-03-20T05:46:58.055Z,99.90
2023-03-20T05:49:25.546Z,99.90
2023-03-20T05:51:52.629Z,99.90
2023-03-20T05:54:19.880Z,99.90
2023-03-20T05:56:49.813Z,99.90
2023-03-20T05:59:17.008Z,99.90
2023-03-20T06:01:44.192Z,99.90
2023-03-20T06:04:11.359Z,99.90
2023-03-20T06:06:38.486Z,99.90
2023-03-20T06:09:05.857Z,99.90
2023-03-20T06:11:35.490Z,99.90
2023-03-20T06:14:04.186Z,99.90
2023-03-20T06:16:31.457Z,99.90
2023-03-20T06:18:59.484Z,99.90
2023-03-20T06:21:26.583Z,99.90
2023-03-20T06:23:54.803Z,99.90
2023-03-20T06:26:22.112Z,99.90
2023-03-20T06:28:49.261Z,99.90
2023-03-20T06:31:17.072Z,99.90
2023-03-20T06:33:45.266Z,99.90
2023-03-20T06:36:12.458Z,99.90
2023-03-20T06:38:39.567Z,99.90
2023-03-20T06:41:07.044Z,99.90
2023-03-20T06:43:34.174Z,99.90
2023-03-20T06:46:01.393Z,99.90
2023-03-20T06:48:28.558Z,99.90
2023-03-20T06:50:55.706Z,99.90
2023-03-20T06:53:23.006Z,99.90
2023-03-20T06:55:51.691Z,99.90
2023-03-20T06:58:19.122Z,99.90
2023-03-20T07:00:46.760Z,99.90
2023-03-20T07:03:13.937Z,99.90
2023-03-20T07:05:43.177Z,99.90
2023-03-20T07:08:10.392Z,99.90
2023-03-20T07:10:38.290Z,99.90
2023-03-20T07:13:05.398Z,99.90
2023-03-20T07:15:32.653Z,99.90
2023-03-20T07:17:59.796Z,99.90
2023-03-20T07:20:27.388Z,99.90
2023-03-20T07:22:55.622Z,99.90
2023-03-20T07:25:35.491Z,99.90
2023-03-20T07:28:09.013Z,99.90
2023-03-20T07:30:36.352Z,99.90
2023-03-20T07:33:03.781Z,99.90
2023-03-20T07:35:31.530Z,99.90
2023-03-20T07:37:58.654Z,99.90
2023-03-20T07:40:26.123Z,99.90
2023-03-20T07:42:53.309Z,99.90
2023-03-20T07:45:20.456Z,99.90
2023-03-20T07:47:48.677Z,99.90
2023-03-20T07:50:16.778Z,99.90
2023-03-20T07:52:51.424Z,99.90
2023-03-20T07:55:18.799Z,99.90
2023-03-20T07:57:47.752Z,99.90
2023-03-20T08:00:16.571Z,99.90
2023-03-20T08:02:43.874Z,99.90
2023-03-20T08:05:11.312Z,99.90
2023-03-20T08:07:38.529Z,99.90
2023-03-20T08:10:06.462Z,99.90
2023-03-20T08:12:33.557Z,99.90
2023-03-20T08:15:00.722Z,99.90
2023-03-20T08:17:28.077Z,99.90
2023-03-20T08:19:55.798Z,99.90
2023-03-20T08:22:23.016Z,99.90
2023-03-20T08:24:50.211Z,99.90
2023-03-20T08:27:17.557Z,99.90
2023-03-20T08:29:44.666Z,99.90
2023-03-20T08:32:12.008Z,99.90
2023-03-20T08:34:39.156Z,99.90
2023-03-20T08:37:07.989Z,99.90
2023-03-20T08:39:35.905Z,99.90
2023-03-20T08:42:03.079Z,99.90
2023-03-20T08:44:30.422Z,99.90
2023-03-20T08:46:57.777Z,99.90
2023-03-20T08:49:26.436Z,99.90
2023-03-20T08:51:53.587Z,99.90
2023-03-20T08:54:20.699Z,99.90
2023-03-20T08:56:47.864Z,99.90
2023-03-20T08:59:14.960Z,99.90
2023-03-20T09:01:49.696Z,99.90
2023-03-20T09:04:17.722Z,99.40
2023-03-20T09:06:45.142Z,98.30
2023-03-20T09:09:15.779Z,97.90
2023-03-20T09:11:43.093Z,97.80
2023-03-20T09:14:10.807Z,97.30
2023-03-20T09:16:38.246Z,96.80
2023-03-20T09:19:06.637Z,95.70
2023-03-20T09:21:33.753Z,95.70
2023-03-20T09:24:00.922Z,95.10
2023-03-20T09:26:28.016Z,93.40
2023-03-20T09:28:55.201Z,92.70
2023-03-20T09:31:23.248Z,92.30
2023-03-20T09:33:50.511Z,91.90
2023-03-20T09:36:17.818Z,91.10
2023-03-20T09:38:45.142Z,90.10
2023-03-20T09:41:22.918Z,88.40
2023-03-20T09:44:27.447Z,89.50
2023-03-20T09:47:20.527Z,88.20
2023-03-20T09:49:48.075Z,87.70
2023-03-20T09:52:33.131Z,85.50
2023-03-20T09:55:08.882Z,84.30
2023-03-20T09:57:41.198Z,83.10
2023-03-20T10:00:17.501Z,82.70
2023-03-20T10:03:00.930Z,83.90
2023-03-20T10:05:42.800Z,83.40
2023-03-20T10:08:18.991Z,82.60
2023-03-20T10:11:05.192Z,81.70
2023-03-20T10:14:23.088Z,80.50
2023-03-20T10:17:37.671Z,78.90
2023-03-20T10:20:14.095Z,79.00
2023-03-20T10:23:25.077Z,78.00
2023-03-20T10:25:58.804Z,77.00
2023-03-20T10:28:39.142Z,78.00
2023-03-20T10:31:36.642Z,78.10
2023-03-20T10:34:27.697Z,78.00
2023-03-20T10:37:01.978Z,77.40
2023-03-20T10:39:53.139Z,76.60
2023-03-20T10:42:30.583Z,75.50
2023-03-20T10:45:13.158Z,75.70
2023-03-20T10:47:43.455Z,74.50
2023-03-20T10:50:45.635Z,75.10
2023-03-20T10:53:31.738Z,73.90
2023-03-20T10:56:17.067Z,72.20
2023-03-20T10:58:50.569Z,70.50
2023-03-20T11:01:20.763Z,68.80
2023-03-20T11:03:48.480Z,68.30
2023-03-20T11:06:22.862Z,67.20
2023-03-20T11:08:52.759Z,64.40
2023-03-20T11:11:34.183Z,63.90
2023-03-20T11:14:19.228Z,62.90
2023-03-20T11:16:55.136Z,62.30
2023-03-20T11:19:24.402Z,62.30
2023-03-20T11:21:58.326Z,62.50
2023-03-20T11:24:36.940Z,61.30
2023-03-20T11:27:14.719Z,62.10
2023-03-20T11:29:45.742Z,62.90
2023-03-20T11:32:32.255Z,63.10
2023-03-20T11:35:20.970Z,62.40
2023-03-20T11:37:52.490Z,62.50
2023-03-20T11:40:34.081Z,60.80
2023-03-20T11:43:01.145Z,61.20
2023-03-20T11:45:39.507Z,60.10
2023-03-20T11:48:33.540Z,60.80
2023-03-20T11:51:06.284Z,58.90
2023-03-20T11:53:41.822Z,58.50
2023-03-20T11:56:10.909Z,59.20
2023-03-20T11:59:04.005Z,60.20
2023-03-20T12:01:47.057Z,60.70
2023-03-20T12:04:28.404Z,59.10
2023-03-20T12:07:20.236Z,59.00
2023-03-20T12:10:07.216Z,58.60
2023-03-20T12:12:54.158Z,58.30
2023-03-20T12:15:48.065Z,57.50
2023-03-20T12:18:47.328Z,56.40
2023-03-20T12:21:30.178Z,57.20
2023-03-20T12:24:22.876Z,59.00
2023-03-20T12:27:34.683Z,58.50
2023-03-20T12:30:33.087Z,56.80
2023-03-20T12:33:42.986Z,57.60
2023-03-20T12:36:18.534Z,58.30
2023-03-20T12:38:46.280Z,58.60
2023-03-20T12:41:27.015Z,57.50
2023-03-20T12:44:18.814Z,58.70
2023-03-20T12:47:16.560Z,57.60
2023-03-20T12:50:16.412Z,58.30
2023-03-20T12:53:29.229Z,57.30
2023-03-20T12:56:25.211Z,56.10
2023-03-20T12:59:15.739Z,55.70
2023-03-20T13:02:11.139Z,56.00
2023-03-20T13:04:50.242Z,56.70
2023-03-20T13:07:30.018Z,57.30
2023-03-20T13:10:05.381Z,57.90
2023-03-20T13:13:22.424Z,59.60
2023-03-20T13:16:31.746Z,59.90
2023-03-20T13:19:35.244Z,61.30
2023-03-20T13:22:28.308Z,60.10
2023-03-20T13:25:21.236Z,60.10
2023-03-20T13:28:35.346Z,58.70
2023-03-20T13:31:21.020Z,59.90
2023-03-20T13:34:02.415Z,60.00
2023-03-20T13:36:47.328Z,60.10
2023-03-20T13:39:25.948Z,60.10
2023-03-20T13:41:54.944Z,60.00
2023-03-20T13:44:25.769Z,60.80
2023-03-20T13:47:04.056Z,61.30
2023-03-20T13:50:01.047Z,62.00
2023-03-20T13:52:38.219Z,62.00
2023-03-20T13:55:24.713Z,62.40
2023-03-20T13:58:31.826Z,63.00
2023-03-20T14:01:10.320Z,63.10
2023-03-20T14:03:45.891Z,63.60
2023-03-20T14:06:32.330Z,64.10
2023-03-20T14:09:00.959Z,64.80
2023-03-20T14:11:38.373Z,64.30
2023-03-20T14:14:41.593Z,64.30
2023-03-20T14:17:28.439Z,64.30
2023-03-20T14:19:57.131Z,63.70
2023-03-20T14:22:38.843Z,63.30
2023-03-20T14:25:20.940Z,62.70
2023-03-20T14:28:22.019Z,62.90
2023-03-20T14:30:53.232Z,63.20
2023-03-20T14:33:22.513Z,64.10
2023-03-20T14:36:20.766Z,64.20
2023-03-20T14:39:20.993Z,65.10
2023-03-20T14:42:37.776Z,65.00
2023-03-20T14:45:13.874Z,66.00
2023-03-20T14:48:07.063Z,65.80
2023-03-20T14:50:41.751Z,66.10
2023-03-20T14:53:14.186Z,65.90
2023-03-20T14:56:14.561Z,66.90
2023-03-20T14:58:57.968Z,66.70
2023-03-20T15:01:39.092Z,67.30
2023-03-20T15:04:27.366Z,66.80
2023-03-20T15:07:21.443Z,67.60
2023-03-20T15:09:53.909Z,67.20
2023-03-20T15:12:26.139Z,68.10
2023-03-20T15:15:08.157Z,67.50
2023-03-20T15:17:39.865Z,68.20
2023-03-20T15:20:23.424Z,68.30
2023-03-20T15:22:58.360Z,68.60
2023-03-20T15:25:41.042Z,68.60
2023-03-20T15:28:12.093Z,67.70
2023-03-20T15:30:41.049Z,67.80
2023-03-20T15:33:31.402Z,68.10
2023-03-20T15:35:59.034Z,68.40
2023-03-20T15:38:34.108Z,69.00
2023-03-20T15:41:08.538Z,69.00
2023-03-20T15:43:37.619Z,68.90
2023-03-20T15:46:17.849Z,69.80
2023-03-20T15:48:49.995Z,68.40
2023-03-20T15:51:18.691Z,68.90
2023-03-20T15:53:48.688Z,68.40
2023-03-20T15:56:19.902Z,68.50
2023-03-20T15:58:54.183Z,68.70
2023-03-20T16:01:25.764Z,69.30
2023-03-20T16:03:59.554Z,69.20
2023-03-20T16:06:27.460Z,68.90
2023-03-20T16:09:06.312Z,69.00
2023-03-20T16:11:40.432Z,69.40
2023-03-20T16:14:15.966Z,69.70
2023-03-20T16:16:47.064Z,69.90
2023-03-20T16:19:15.190Z,70.20
2023-03-20T16:21:54.390Z,70.80
2023-03-20T16:24:29.665Z,71.10
2023-03-20T16:26:58.094Z,71.70
2023-03-20T16:29:27.817Z,72.00
2023-03-20T16:32:21.047Z,72.20
2023-03-20T16:34:51.446Z,72.70
2023-03-20T16:37:30.183Z,73.40
2023-03-20T16:40:17.821Z,73.70
2023-03-20T16:42:45.921Z,74.20
2023-03-20T16:45:24.157Z,74.60
2023-03-20T16:47:51.492Z,74.90
2023-03-20T16:50:24.072Z,75.30
2023-03-20T16:52:58.037Z,76.00
2023-03-20T16:55:31.851Z,76.40
2023-03-20T16:58:06.927Z,76.90
2023-03-20T17:00:51.119Z,77.30
2023-03-20T17:03:48.196Z,77.90
2023-03-20T17:06:25.553Z,78.50
2023-03-20T17:08:56.565Z,78.70
2023-03-20T17:11:35.745Z,79.20
2023-03-20T17:14:04.443Z,79.40
2023-03-20T17:16:33.595Z,79.80
2023-03-20T17:19:04.478Z,80.40
2023-03-20T17:21:32.273Z,80.70
2023-03-20T17:24:00.300Z,81.40
2023-03-20T17:26:27.961Z,81.80
2023-03-20T17:28:56.561Z,82.50
2023-03-20T17:31:24.124Z,82.70
2023-03-20T17:33:52.692Z,83.20
2023-03-20T17:36:29.684Z,83.90
2023-03-20T17:39:00.824Z,84.50
2023-03-20T17:41:29.121Z,85.30
2023-03-20T17:43:56.845Z,85.60
2023-03-20T17:46:30.806Z,86.30
2023-03-20T17:49:15.249Z,86.90
2023-03-20T17:51:44.328Z,87.70
2023-03-20T17:54:11.918Z,88.10
2023-03-20T17:56:42.163Z,89.30
2023-03-20T17:59:15.822Z,90.00
2023-03-20T18:01:45.100Z,90.40
2023-03-20T18:04:12.453Z,90.70
2023-03-20T18:06:40.178Z,91.00
2023-03-20T18:09:12.281Z,91.50
2023-03-20T18:11:40.298Z,91.90
2023-03-20T18:14:08.735Z,92.20
2023-03-20T18:16:38.297Z,92.70
2023-03-20T18:19:11.453Z,93.10
2023-03-20T18:21:41.033Z,93.50
2023-03-20T18:24:08.498Z,93.90
2023-03-20T18:26:45.788Z,94.30
2023-03-20T18:29:16.503Z,94.70
2023-03-20T18:31:45.462Z,95.10
2023-03-20T18:34:13.301Z,95.40
2023-03-20T18:36:41.954Z,95.80
2023-03-20T18:39:31.974Z,96.00
2023-03-20T18:42:04.955Z,96.30
2023-03-20T18:44:34.307Z,96.50
2023-03-20T18:47:06.892Z,96.90
2023-03-20T18:49:39.192Z,97.20
2023-03-20T18:52:07.674Z,97.50
2023-03-20T18:54:40.148Z,97.70
2023-03-20T18:57:14.434Z,98.00
2023-03-20T18:59:42.963Z,98.20
2023-03-20T19:02:10.923Z,98.50
2023-03-20T19:04:39.382Z,98.70
2023-03-20T19:07:13.345Z,98.80
2023-03-20T19:09:42.016Z,99.20
2023-03-20T19:12:10.483Z,99.20
2023-03-20T19:14:38.920Z,99.60
2023-03-20T19:17:07.375Z,99.70
2023-03-20T19:19:36.302Z,99.90
2023-03-20T19:22:05.803Z,99.90
2023-03-20T19:24:34.073Z,99.90
2023-03-20T19:27:04.526Z,99.90
2023-03-20T19:29:33.177Z,99.90
2023-03-20T19:32:02.518Z,99.90
2023-03-20T19:35:23.117Z,99.90
2023-03-20T19:37:19.977Z,99.90
2023-03-20T19:39:49.793Z,99.90
2023-03-20T19:42:49.624Z,99.90
2023-03-20T19:45:08.012Z,99.90
2023-03-20T19:47:36.519Z,99.90
2023-03-20T19:50:06.144Z,99.90
2023-03-20T19:52:37.428Z,99.90
2023-03-20T19:55:09.415Z,99.90
2023-03-20T19:57:40.084Z,99.90
2023-03-20T20:00:54.967Z,99.90
2023-03-20T20:03:03.336Z,99.90
2023-03-20T20:05:37.488Z,99.90
2023-03-20T20:08:30.871Z,99.90
2023-03-20T20:10:56.740Z,99.90
2023-03-20T20:13:31.543Z,99.90
2023-03-20T20:16:00.884Z,99.90
2023-03-20T20:18:32.719Z,99.90
2023-03-20T20:23:49.175Z,99.90
2023-03-20T20:26:18.538Z,99.90
2023-03-20T20:28:49.109Z,99.90
2023-03-20T20:31:17.428Z,99.90
2023-03-20T20:34:02.049Z,99.90
2023-03-20T20:39:27.325Z,99.90
2023-03-20T20:41:57.457Z,99.90
2023-03-20T20:44:25.869Z,99.90
2023-03-20T20:46:53.511Z,99.90
2023-03-20T20:49:21.290Z,99.90
2023-03-20T20:51:50.648Z,99.90
2023-03-20T20:54:18.311Z,99.90
2023-03-20T20:56:46.355Z,99.90
2023-03-20T20:59:14.327Z,99.90
2023-03-20T21:01:42.321Z,99.90
2023-03-20T21:04:12.404Z,99.90
2023-03-20T21:07:09.294Z,99.90
2023-03-20T21:09:30.992Z,99.90
2023-03-20T21:11:59.025Z,99.90
2023-03-20T21:14:27.366Z,99.90
2023-03-20T21:17:01.400Z,99.90
2023-03-20T21:19:32.539Z,99.90
2023-03-20T21:22:00.523Z,99.90
2023-03-20T21:24:32.711Z,99.90
2023-03-20T21:27:11.022Z,99.90
2023-03-20T21:29:39.962Z,99.90
2023-03-20T21:32:09.546Z,99.90
2023-03-20T21:34:38.936Z,99.90
2023-03-20T21:38:04.009Z,99.90
2023-03-20T21:39:54.082Z,99.90
2023-03-20T21:42:21.470Z,99.90
2023-03-20T21:50:50.207Z,99.90
2023-03-20T21:54:07.850Z,99.90
2023-03-20T21:56:40.245Z,99.90
2023-03-20T21:59:27.038Z,99.90
2023-03-20T22:16:11.086Z,99.90
2023-03-20T22:30:12.051Z,99.90
2023-03-20T22:36:08.146Z,99.90
2023-03-20T22:44:34.121Z,99.90
2023-03-20T22:46:43.775Z,99.90
2023-03-20T22:49:01.246Z,99.90
2023-03-20T22:51:34.232Z,99.90
2023-03-20T22:54:03.041Z,99.90
2023-03-20T22:56:30.395Z,99.90
2023-03-20T22:58:57.628Z,99.90
2023-03-20T23:01:24.756Z,99.90
2023-03-20T23:03:51.846Z,99.90
2023-03-20T23:06:27.424Z,99.90
2023-03-20T23:08:58.328Z,99.90
2023-03-20T23:11:28.032Z,99.90
2023-03-20T23:13:56.394Z,99.90
2023-03-20T23:16:23.749Z,99.90
2023-03-20T23:18:50.902Z,99.90
2023-03-20T23:21:18.681Z,99.90
2023-03-20T23:23:45.878Z,99.90
2023-03-20T23:26:16.896Z,99.90
2023-03-20T23:28:47.550Z,99.90
2023-03-20T23:31:19.120Z,99.90
2023-03-20T23:33:56.436Z,99.90
2023-03-20T23:36:35.987Z,99.90
2023-03-20T23:39:09.692Z,99.90
2023-03-20T23:44:25.194Z,99.90
2023-03-20T23:46:52.398Z,99.90
2023-03-20T23:49:19.650Z,99.90
2023-03-20T23:51:46.988Z,99.90
2023-03-20T23:54:14.379Z,99.90
2023-03-20T23:56:41.709Z,99.90
2023-03-20T23:59:20.701Z,99.90
